createdAt,value
2018-12-01T00:00:35.093Z,205.20
2018-12-01T00:01:35.098Z,219.30
2018-12-01T00:02:35.660Z,504.30
2018-12-01T00:03:35.113Z,321.40
2018-12-01T00:04:35.119Z,420.40
2018-12-01T00:05:35.127Z,693.50
2018-12-01T00:06:35.129Z,609.70
2018-12-01T00:07:35.136Z,453.10
2018-12-01T00:08:35.145Z,679.10
2018-12-01T00:09:35.150Z,611.80
2018-12-01T00:10:35.154Z,633.00
2018-12-01T00:11:35.167Z,654.90
2018-12-01T00:12:35.172Z,735.00
2018-12-01T00:13:35.178Z,715.40
2018-12-01T00:14:35.184Z,644.30
2018-12-01T00:15:35.188Z,169.80
2018-12-01T00:16:35.194Z,438.60
2018-12-01T00:17:35.199Z,403.40
2018-12-01T00:18:35.207Z,373.20
2018-12-01T00:19:35.213Z,468.20
2018-12-01T00:20:35.224Z,163.60
2018-12-01T00:21:35.229Z,583.90
2018-12-01T00:22:35.232Z,510.80
2018-12-01T00:23:35.240Z,547.30
2018-12-01T00:24:35.245Z,508.30
2018-12-01T00:25:35.251Z,553.80
2018-12-01T00:26:35.257Z,488.00
2018-12-01T00:27:35.267Z,521.20
2018-12-01T00:28:35.272Z,301.50
2018-12-01T00:29:35.276Z,364.20
2018-12-01T00:30:35.283Z,331.60
2018-12-01T00:31:35.290Z,302.10
2018-12-01T00:32:35.304Z,613.90
2018-12-01T00:33:35.303Z,701.50
2018-12-01T00:34:35.310Z,695.70
2018-12-01T00:35:35.318Z,447.50
2018-12-01T00:36:35.323Z,380.00
2018-12-01T00:37:35.327Z,468.10
2018-12-01T00:38:35.335Z,383.80
2018-12-01T00:39:35.342Z,439.50
2018-12-01T00:40:35.347Z,391.40
2018-12-01T00:41:35.353Z,330.60
2018-12-01T00:42:35.360Z,132.40
2018-12-01T00:43:35.367Z,29.10
2018-12-01T00:44:35.375Z,8.60
2018-12-01T00:45:35.379Z,12.00
2018-12-01T00:46:35.386Z,49.30
2018-12-01T00:47:35.398Z,55.70
2018-12-01T00:48:35.400Z,120.40
2018-12-01T00:49:35.406Z,31.40
2018-12-01T00:50:35.411Z,17.30
2018-12-01T00:51:35.420Z,52.50
2018-12-01T00:52:35.431Z,100.50
2018-12-01T00:53:35.432Z,26.30
2018-12-01T00:54:35.437Z,166.80
2018-12-01T00:55:35.446Z,139.60
2018-12-01T00:56:35.452Z,59.90
2018-12-01T00:57:35.456Z,134.90
2018-12-01T00:58:35.464Z,181.10
2018-12-01T00:59:35.474Z,242.50
2018-12-01T01:00:35.476Z,215.70
2018-12-01T01:01:35.482Z,9.80
2018-12-01T01:02:35.489Z,3.40
2018-12-01T01:03:35.497Z,6.10
2018-12-01T01:04:35.502Z,3.30
2018-12-01T01:05:35.508Z,3.10
2018-12-01T01:06:35.514Z,2.90
2018-12-01T01:07:35.522Z,3.60
2018-12-01T01:08:35.530Z,2.70
2018-12-01T01:09:35.536Z,2.60
2018-12-01T01:10:35.540Z,2.30
2018-12-01T01:11:35.549Z,2.90
2018-12-01T01:12:35.560Z,2.60
2018-12-01T01:13:35.563Z,2.50
2018-12-01T01:14:35.568Z,2.40
2018-12-01T01:15:35.575Z,3.50
2018-12-01T01:16:35.588Z,166.40
2018-12-01T01:17:35.592Z,149.70
2018-12-01T01:18:35.595Z,254.30
2018-12-01T01:19:35.599Z,124.80
2018-12-01T01:20:35.607Z,121.30
2018-12-01T01:21:35.615Z,51.50
2018-12-01T01:22:35.621Z,179.70
2018-12-01T01:23:35.631Z,552.70
2018-12-01T01:24:35.633Z,433.10
2018-12-01T01:25:35.641Z,232.40
2018-12-01T01:26:35.648Z,170.10
2018-12-01T01:27:35.656Z,57.40
2018-12-01T01:28:35.661Z,46.50
2018-12-01T01:29:35.666Z,63.50
2018-12-01T01:30:35.674Z,124.00
2018-12-01T01:31:35.681Z,111.30
2018-12-01T01:32:35.696Z,88.00
2018-12-01T01:33:35.697Z,192.80
2018-12-01T01:34:35.699Z,45.40
2018-12-01T01:35:35.706Z,8.60
2018-12-01T01:36:35.713Z,39.90
2018-12-01T01:37:35.720Z,156.70
2018-12-01T01:38:35.726Z,450.10
2018-12-01T01:39:35.732Z,120.50
2018-12-01T01:40:35.739Z,70.80
2018-12-01T01:41:35.748Z,455.60
2018-12-01T01:42:35.752Z,517.30
2018-12-01T01:43:35.763Z,1046.10
2018-12-01T01:44:35.765Z,964.50
2018-12-01T01:45:35.770Z,805.10
2018-12-01T01:46:35.778Z,290.40
2018-12-01T01:47:35.787Z,404.10
2018-12-01T01:48:35.794Z,434.60
2018-12-01T01:49:35.798Z,897.10
2018-12-01T01:50:35.803Z,947.30
2018-12-01T01:51:35.816Z,933.00
2018-12-01T01:52:35.819Z,918.70
2018-12-01T01:53:35.823Z,733.00
2018-12-01T01:54:35.831Z,780.00
2018-12-01T01:55:35.835Z,453.60
2018-12-01T01:56:35.843Z,273.50
2018-12-01T01:57:35.850Z,335.50
2018-12-01T01:58:35.862Z,414.60
2018-12-01T01:59:35.861Z,274.60
2018-12-01T02:00:35.876Z,468.10
2018-12-01T02:01:35.874Z,732.40
2018-12-01T02:02:35.882Z,805.60
2018-12-01T02:03:35.888Z,1066.90
2018-12-01T02:04:35.898Z,334.20
2018-12-01T02:05:35.902Z,304.90
2018-12-01T02:06:35.906Z,429.10
2018-12-01T02:07:35.914Z,513.10
2018-12-01T02:08:35.921Z,654.40
2018-12-01T02:09:35.927Z,585.20
2018-12-01T02:10:35.931Z,567.30
2018-12-01T02:11:35.940Z,262.30
2018-12-01T02:12:35.943Z,471.90
2018-12-01T02:13:35.948Z,101.30
2018-12-01T02:14:35.956Z,419.90
2018-12-01T02:15:35.964Z,309.70
2018-12-01T02:16:35.972Z,119.90
2018-12-01T02:17:35.973Z,592.70
2018-12-01T02:18:35.980Z,366.00
2018-12-01T02:19:35.987Z,109.30
2018-12-01T02:20:36.000Z,103.60
2018-12-01T02:21:36.004Z,309.90
2018-12-01T02:22:36.005Z,332.70
2018-12-01T02:23:36.017Z,248.60
2018-12-01T02:24:36.018Z,262.40
2018-12-01T02:25:36.026Z,528.60
2018-12-01T02:26:36.031Z,680.90
2018-12-01T02:27:36.035Z,432.10
2018-12-01T02:28:36.045Z,566.10
2018-12-01T02:29:36.048Z,603.30
2018-12-01T02:30:36.056Z,660.30
2018-12-01T02:31:36.062Z,586.90
2018-12-01T02:32:36.070Z,646.10
2018-12-01T02:33:36.074Z,741.40
2018-12-01T02:34:36.082Z,605.00
2018-12-01T02:35:36.088Z,548.70
2018-12-01T02:36:36.094Z,640.00
2018-12-01T02:37:36.103Z,770.30
2018-12-01T02:38:36.109Z,695.60
2018-12-01T02:39:36.115Z,593.30
2018-12-01T02:40:36.122Z,763.10
2018-12-01T02:41:36.125Z,792.30
2018-12-01T02:42:36.129Z,731.30
2018-12-01T02:43:36.142Z,665.40
2018-12-01T02:44:36.144Z,756.10
2018-12-01T02:45:36.148Z,760.40
2018-12-01T02:46:36.156Z,658.80
2018-12-01T02:47:36.167Z,637.50
2018-12-01T02:48:36.169Z,595.10
2018-12-01T02:49:36.173Z,511.10
2018-12-01T02:50:36.179Z,624.40
2018-12-01T02:51:36.187Z,869.60
2018-12-01T02:52:36.192Z,838.40
2018-12-01T02:53:36.197Z,769.80
2018-12-01T02:54:36.205Z,783.80
2018-12-01T02:55:36.212Z,619.30
2018-12-01T02:56:36.220Z,584.50
2018-12-01T02:57:36.224Z,495.10
2018-12-01T02:58:36.232Z,526.60
2018-12-01T02:59:36.235Z,364.80
2018-12-01T03:00:36.240Z,733.30
2018-12-01T03:01:36.248Z,447.50
2018-12-01T03:02:36.253Z,492.90
2018-12-01T03:03:36.259Z,807.90
2018-12-01T03:04:36.266Z,541.30
2018-12-01T03:05:36.272Z,609.90
2018-12-01T03:06:36.281Z,505.90
2018-12-01T03:07:36.287Z,583.60
2018-12-01T03:08:36.291Z,434.30
2018-12-01T03:09:36.296Z,648.20
2018-12-01T03:10:36.302Z,647.70
2018-12-01T03:11:36.309Z,684.40
2018-12-01T03:12:36.315Z,687.30
2018-12-01T03:13:36.320Z,458.40
2018-12-01T03:14:36.330Z,590.00
2018-12-01T03:15:36.335Z,556.80
2018-12-01T03:16:36.341Z,623.70
2018-12-01T03:17:36.347Z,703.40
2018-12-01T03:18:36.352Z,732.30
2018-12-01T03:19:36.361Z,610.90
2018-12-01T03:20:36.367Z,739.90
2018-12-01T03:21:36.373Z,693.20
2018-12-01T03:22:36.377Z,747.10
2018-12-01T03:23:36.390Z,562.60
2018-12-01T03:24:36.391Z,615.20
2018-12-01T03:25:36.402Z,719.30
2018-12-01T03:26:36.403Z,680.40
2018-12-01T03:27:36.410Z,786.40
2018-12-01T03:28:36.415Z,737.30
2018-12-01T03:29:36.420Z,868.70
2018-12-01T03:30:36.427Z,795.10
2018-12-01T03:31:36.437Z,690.20
2018-12-01T03:32:36.446Z,847.90
2018-12-01T03:33:36.445Z,695.90
2018-12-01T03:34:36.453Z,821.10
2018-12-01T03:35:36.462Z,1069.10
2018-12-01T03:36:36.465Z,1064.10
2018-12-01T03:37:36.471Z,937.80
2018-12-01T03:38:36.477Z,750.30
2018-12-01T03:39:36.485Z,1173.70
2018-12-01T03:40:36.493Z,1038.80
2018-12-01T03:41:36.495Z,1076.90
2018-12-01T03:42:36.502Z,954.50
2018-12-01T03:43:36.509Z,640.70
2018-12-01T03:44:36.519Z,785.30
2018-12-01T03:45:36.522Z,906.80
2018-12-01T03:46:36.527Z,1151.90
2018-12-01T03:47:36.532Z,1041.30
2018-12-01T03:48:36.539Z,954.50
2018-12-01T03:49:36.548Z,843.90
2018-12-01T03:50:36.552Z,455.40
2018-12-01T03:51:36.559Z,325.70
2018-12-01T03:52:36.564Z,263.00
2018-12-01T03:53:36.568Z,246.00
2018-12-01T03:54:36.576Z,440.30
2018-12-01T03:55:36.581Z,416.50
2018-12-01T03:56:36.588Z,736.30
2018-12-01T03:57:36.594Z,887.40
2018-12-01T03:58:36.600Z,858.00
2018-12-01T03:59:36.607Z,883.60
2018-12-01T04:00:36.613Z,814.60
2018-12-01T04:01:36.618Z,735.80
2018-12-01T04:02:36.627Z,801.00
2018-12-01T04:03:36.631Z,909.30
2018-12-01T04:04:36.636Z,884.80
2018-12-01T04:05:36.641Z,919.80
2018-12-01T04:06:36.648Z,902.70
2018-12-01T04:07:36.656Z,883.00
2018-12-01T04:08:36.664Z,742.00
2018-12-01T04:09:36.668Z,1049.00
2018-12-01T04:10:36.672Z,956.20
2018-12-01T04:11:36.680Z,896.00
2018-12-01T04:12:36.689Z,706.60
2018-12-01T04:13:36.694Z,1014.10
2018-12-01T04:14:36.701Z,894.60
2018-12-01T04:15:36.706Z,942.50
2018-12-01T04:16:36.713Z,917.80
2018-12-01T04:17:36.714Z,793.90
2018-12-01T04:18:36.721Z,1059.20
2018-12-01T04:19:36.726Z,960.10
2018-12-01T04:20:36.734Z,918.50
2018-12-01T04:21:36.741Z,953.90
2018-12-01T04:22:36.746Z,928.40
2018-12-01T04:23:36.751Z,802.40
2018-12-01T04:24:36.760Z,606.80
2018-12-01T04:25:36.763Z,701.90
2018-12-01T04:26:36.769Z,576.40
2018-12-01T04:27:36.776Z,510.50
2018-12-01T04:28:36.784Z,710.40
2018-12-01T04:29:36.786Z,877.80
2018-12-01T04:30:36.792Z,838.20
2018-12-01T04:31:36.800Z,838.10
2018-12-01T04:32:36.807Z,814.70
2018-12-01T04:33:36.810Z,769.20
2018-12-01T04:34:36.817Z,832.70
2018-12-01T04:35:36.822Z,638.50
2018-12-01T04:36:36.830Z,460.80
2018-12-01T04:37:36.836Z,540.40
2018-12-01T04:38:36.839Z,526.70
2018-12-01T04:39:36.849Z,673.00
2018-12-01T04:40:36.851Z,729.90
2018-12-01T04:41:36.861Z,673.20
2018-12-01T04:42:36.862Z,726.50
2018-12-01T04:43:36.868Z,705.00
2018-12-01T04:44:36.876Z,719.30
2018-12-01T04:45:36.879Z,767.70
2018-12-01T04:46:36.890Z,846.00
2018-12-01T04:47:36.894Z,720.70
2018-12-01T04:48:36.902Z,616.30
2018-12-01T04:49:36.906Z,687.10
2018-12-01T04:50:36.921Z,827.10
2018-12-01T04:51:36.918Z,745.80
2018-12-01T04:52:36.923Z,701.60
2018-12-01T04:53:36.927Z,528.30
2018-12-01T04:54:36.940Z,423.20
2018-12-01T04:55:36.942Z,566.50
2018-12-01T04:56:36.954Z,433.80
2018-12-01T04:57:36.950Z,534.70
2018-12-01T04:58:36.956Z,652.50
2018-12-01T04:59:36.966Z,602.60
2018-12-01T05:00:36.966Z,776.20
2018-12-01T05:01:36.978Z,691.00
2018-12-01T05:02:36.988Z,589.20
2018-12-01T05:03:36.985Z,709.80
2018-12-01T05:04:36.993Z,640.60
2018-12-01T05:05:36.995Z,541.90
2018-12-01T05:06:37.010Z,461.50
2018-12-01T05:07:37.008Z,463.50
2018-12-01T05:08:37.014Z,509.20
2018-12-01T05:09:37.023Z,465.90
2018-12-01T05:10:37.025Z,488.90
2018-12-01T05:11:37.031Z,455.70
2018-12-01T05:12:37.037Z,512.00
2018-12-01T05:13:37.041Z,514.60
2018-12-01T05:14:37.047Z,496.90
2018-12-01T05:15:37.055Z,497.20
2018-12-01T05:16:37.059Z,514.40
2018-12-01T05:17:37.064Z,571.00
2018-12-01T05:18:37.072Z,648.40
2018-12-01T05:19:37.080Z,654.50
2018-12-01T05:20:37.086Z,600.40
2018-12-01T05:21:37.089Z,719.80
2018-12-01T05:22:37.092Z,619.30
2018-12-01T05:23:37.099Z,595.00
2018-12-01T05:24:37.106Z,579.70
2018-12-01T05:25:37.109Z,629.80
2018-12-01T05:26:37.115Z,481.80
2018-12-01T05:27:37.120Z,442.90
2018-12-01T05:28:37.129Z,413.60
2018-12-01T05:29:37.134Z,437.90
2018-12-01T05:30:37.138Z,739.30
2018-12-01T05:31:37.144Z,721.70
2018-12-01T05:32:37.152Z,529.90
2018-12-01T05:33:37.153Z,714.40
2018-12-01T05:34:37.160Z,702.30
2018-12-01T05:35:37.167Z,674.60
2018-12-01T05:36:37.169Z,587.30
2018-12-01T05:37:37.176Z,491.90
2018-12-01T05:38:37.188Z,595.00
2018-12-01T05:39:37.190Z,461.90
2018-12-01T05:40:37.194Z,434.90
2018-12-01T05:41:37.197Z,414.30
2018-12-01T05:42:37.206Z,432.60
2018-12-01T05:43:37.208Z,445.50
2018-12-01T05:44:37.216Z,423.50
2018-12-01T05:45:37.218Z,451.40
2018-12-01T05:46:37.223Z,422.10
2018-12-01T05:47:37.233Z,378.90
2018-12-01T05:48:37.234Z,347.10
2018-12-01T05:49:37.240Z,388.20
2018-12-01T05:50:37.246Z,416.60
2018-12-01T05:51:37.252Z,449.40
2018-12-01T05:52:37.259Z,475.10
2018-12-01T05:53:37.272Z,422.90
2018-12-01T05:54:37.266Z,419.30
2018-12-01T05:55:37.273Z,392.90
2018-12-01T05:56:37.275Z,341.70
2018-12-01T05:57:37.283Z,374.80
2018-12-01T05:58:37.292Z,366.40
2018-12-01T05:59:37.292Z,393.20
2018-12-01T06:00:37.298Z,477.40
2018-12-01T06:01:37.304Z,399.00
2018-12-01T06:02:37.307Z,300.40
2018-12-01T06:03:37.311Z,503.80
2018-12-01T06:04:37.320Z,543.30
2018-12-01T06:05:37.324Z,659.20
2018-12-01T06:06:37.328Z,813.70
2018-12-01T06:07:37.334Z,910.30
2018-12-01T06:08:37.339Z,1000.70
2018-12-01T06:09:37.344Z,732.00
2018-12-01T06:10:37.348Z,848.50
2018-12-01T06:11:37.369Z,877.30
2018-12-01T06:12:37.362Z,703.30
2018-12-01T06:13:37.362Z,852.10
2018-12-01T06:14:37.368Z,773.40
2018-12-01T06:15:37.377Z,799.40
2018-12-01T06:16:37.380Z,554.30
2018-12-01T06:17:37.384Z,377.00
2018-12-01T06:18:37.388Z,630.30
2018-12-01T06:19:37.394Z,679.00
2018-12-01T06:20:37.399Z,618.70
2018-12-01T06:21:37.408Z,511.20
2018-12-01T06:22:37.409Z,740.10
2018-12-01T06:23:37.426Z,720.20
2018-12-01T06:24:37.428Z,647.00
2018-12-01T06:25:37.424Z,437.10
2018-12-01T06:26:37.430Z,226.60
2018-12-01T06:27:37.434Z,56.20
2018-12-01T06:28:37.443Z,590.20
2018-12-01T06:29:37.446Z,184.60
2018-12-01T06:30:37.449Z,68.70
2018-12-01T06:31:37.457Z,157.60
2018-12-01T06:32:37.471Z,241.50
2018-12-01T06:33:37.467Z,204.90
2018-12-01T06:34:37.473Z,30.60
2018-12-01T06:35:37.475Z,15.80
2018-12-01T06:36:37.483Z,50.50
2018-12-01T06:37:37.486Z,23.70
2018-12-01T06:38:37.492Z,21.10
2018-12-01T06:39:37.498Z,18.60
2018-12-01T06:40:37.503Z,48.90
2018-12-01T06:41:37.508Z,63.90
2018-12-01T06:42:37.513Z,46.20
2018-12-01T06:43:37.519Z,27.40
2018-12-01T06:44:37.527Z,18.90
2018-12-01T06:45:37.532Z,35.00
2018-12-01T06:46:37.535Z,33.50
2018-12-01T06:47:37.541Z,26.40
2018-12-01T06:48:37.546Z,13.90
2018-12-01T06:49:37.553Z,24.50
2018-12-01T06:50:37.558Z,32.20
2018-12-01T06:51:37.564Z,14.90
2018-12-01T06:52:37.569Z,13.50
2018-12-01T06:53:37.578Z,18.30
2018-12-01T06:54:37.579Z,18.50
2018-12-01T06:55:37.584Z,12.90
2018-12-01T06:56:37.590Z,15.20
2018-12-01T06:57:37.597Z,15.60
2018-12-01T06:58:37.602Z,13.60
2018-12-01T06:59:37.609Z,13.70
2018-12-01T07:00:37.615Z,15.90
2018-12-01T07:01:37.619Z,15.70
2018-12-01T07:02:37.625Z,11.80
2018-12-01T07:03:37.630Z,12.70
2018-12-01T07:04:37.635Z,10.30
2018-12-01T07:05:37.643Z,10.30
2018-12-01T07:06:37.647Z,11.20
2018-12-01T07:07:37.652Z,8.80
2018-12-01T07:08:37.659Z,10.20
2018-12-01T07:09:37.666Z,10.00
2018-12-01T07:10:37.669Z,8.10
2018-12-01T07:11:37.681Z,10.20
2018-12-01T07:12:37.681Z,7.60
2018-12-01T07:13:37.689Z,8.20
2018-12-01T07:14:37.692Z,9.80
2018-12-01T07:15:37.699Z,8.50
2018-12-01T07:16:37.739Z,7.70
2018-12-01T07:17:37.710Z,7.40
2018-12-01T07:18:37.714Z,8.90
2018-12-01T07:19:37.722Z,7.90
2018-12-01T07:20:37.728Z,7.50
2018-12-01T07:21:37.735Z,6.50
2018-12-01T07:22:37.737Z,6.60
2018-12-01T07:23:37.745Z,6.90
2018-12-01T07:24:37.752Z,4.90
2018-12-01T07:25:37.754Z,4.90
2018-12-01T07:26:37.762Z,4.20
2018-12-01T07:27:37.766Z,4.50
2018-12-01T07:28:37.772Z,4.40
2018-12-01T07:29:37.780Z,5.70
2018-12-01T07:30:37.785Z,5.10
2018-12-01T07:31:37.789Z,5.10
2018-12-01T07:32:37.798Z,9.60
2018-12-01T07:33:37.803Z,363.40
2018-12-01T07:34:37.810Z,133.20
2018-12-01T07:35:37.812Z,158.90
2018-12-01T07:36:37.818Z,6.20
2018-12-01T07:37:37.824Z,4.90
2018-12-01T07:38:37.831Z,5.20
2018-12-01T07:39:37.837Z,4.60
2018-12-01T07:40:37.842Z,6.50
2018-12-01T07:41:37.853Z,5.10
2018-12-01T07:42:37.854Z,17.60
2018-12-01T07:43:37.867Z,23.30
2018-12-01T07:44:37.866Z,24.10
2018-12-01T07:45:37.873Z,84.90
2018-12-01T07:46:37.881Z,7.70
2018-12-01T07:47:37.884Z,6.70
2018-12-01T07:48:37.891Z,5.90
2018-12-01T07:49:37.899Z,6.40
2018-12-01T07:50:37.902Z,7.90
2018-12-01T07:51:37.910Z,8.90
2018-12-01T07:52:37.919Z,5.50
2018-12-01T07:53:37.921Z,4.60
2018-12-01T07:54:37.924Z,3.80
2018-12-01T07:55:37.931Z,22.80
2018-12-01T07:56:37.934Z,35.80
2018-12-01T07:57:37.944Z,7.30
2018-12-01T07:58:37.951Z,7.60
2018-12-01T07:59:37.958Z,6.60
2018-12-01T08:00:37.959Z,23.10
2018-12-01T08:01:37.966Z,12.70
2018-12-01T08:02:37.969Z,63.50
2018-12-01T08:03:37.976Z,445.80
2018-12-01T08:04:37.982Z,530.10
2018-12-01T08:05:37.989Z,194.70
2018-12-01T08:06:37.993Z,78.40
2018-12-01T08:07:38.000Z,94.50
2018-12-01T08:08:38.006Z,45.50
2018-12-01T08:09:38.012Z,12.60
2018-12-01T08:10:38.017Z,213.30
2018-12-01T08:11:38.023Z,435.40
2018-12-01T08:12:38.027Z,372.80
2018-12-01T08:13:38.034Z,344.70
2018-12-01T08:14:38.040Z,211.30
2018-12-01T08:15:38.046Z,60.40
2018-12-01T08:16:38.052Z,93.30
2018-12-01T08:17:38.057Z,156.10
2018-12-01T08:18:38.066Z,262.00
2018-12-01T08:19:38.070Z,26.00
2018-12-01T08:20:38.076Z,5.80
2018-12-01T08:21:38.081Z,4.40
2018-12-01T08:22:38.087Z,6.00
2018-12-01T08:23:38.091Z,4.30
2018-12-01T08:24:38.099Z,4.20
2018-12-01T08:25:38.105Z,3.50
2018-12-01T08:26:38.111Z,8.70
2018-12-01T08:27:38.116Z,3.10
2018-12-01T08:28:38.124Z,4.90
2018-12-01T08:29:38.128Z,5.40
2018-12-01T08:30:38.134Z,6.40
2018-12-01T08:31:38.141Z,9.10
2018-12-01T08:32:38.147Z,6.00
2018-12-01T08:33:38.152Z,176.00
2018-12-01T08:34:38.157Z,183.60
2018-12-01T08:35:38.165Z,586.10
2018-12-01T08:36:38.172Z,193.00
2018-12-01T08:37:38.178Z,255.70
2018-12-01T08:38:38.185Z,82.50
2018-12-01T08:39:38.189Z,576.50
2018-12-01T08:40:38.194Z,145.60
2018-12-01T08:41:38.200Z,191.10
2018-12-01T08:42:38.205Z,167.80
2018-12-01T08:43:38.219Z,311.20
2018-12-01T08:44:38.218Z,219.90
2018-12-01T08:45:38.225Z,94.80
2018-12-01T08:46:38.230Z,44.50
2018-12-01T08:47:38.236Z,4.80
2018-12-01T08:48:38.242Z,4.30
2018-12-01T08:49:38.246Z,3.90
2018-12-01T08:50:38.252Z,4.30
2018-12-01T08:51:38.261Z,4.70
2018-12-01T08:52:38.265Z,3.50
2018-12-01T08:53:38.270Z,3.90
2018-12-01T08:54:38.275Z,3.30
2018-12-01T08:55:38.283Z,3.50
2018-12-01T08:56:38.288Z,3.00
2018-12-01T08:57:38.295Z,3.80
2018-12-01T08:58:38.300Z,24.60
2018-12-01T08:59:38.309Z,126.10
2018-12-01T09:00:38.311Z,9.80
2018-12-01T09:01:38.315Z,4.40
2018-12-01T09:02:38.320Z,3.20
2018-12-01T09:03:38.328Z,21.20
2018-12-01T09:04:38.333Z,5.20
2018-12-01T09:05:38.339Z,3.50
2018-12-01T09:06:38.346Z,7.80
2018-12-01T09:07:38.349Z,3.30
2018-12-01T09:08:38.358Z,3.00
2018-12-01T09:09:38.360Z,3.20
2018-12-01T09:10:38.367Z,3.20
2018-12-01T09:11:38.374Z,2.90
2018-12-01T09:12:38.379Z,2.60
2018-12-01T09:13:38.385Z,4.50
2018-12-01T09:14:38.391Z,5.00
2018-12-01T09:15:38.397Z,4.90
2018-12-01T09:16:38.402Z,99.90
2018-12-01T09:17:38.408Z,106.80
2018-12-01T09:18:38.414Z,29.40
2018-12-01T09:19:38.419Z,119.00
2018-12-01T09:20:38.427Z,856.90
2018-12-01T09:21:38.434Z,810.60
2018-12-01T09:22:38.440Z,248.50
2018-12-01T09:23:38.446Z,478.10
2018-12-01T09:24:38.454Z,138.00
2018-12-01T09:25:38.458Z,65.10
2018-12-01T09:26:38.464Z,92.60
2018-12-01T09:27:38.471Z,232.10
2018-12-01T09:28:38.481Z,157.20
2018-12-01T09:29:38.487Z,551.50
2018-12-01T09:30:38.489Z,518.80
2018-12-01T09:31:38.497Z,260.10
2018-12-01T09:32:38.504Z,45.60
2018-12-01T09:33:38.509Z,207.00
2018-12-01T09:34:38.518Z,45.60
2018-12-01T09:35:38.528Z,120.00
2018-12-01T09:36:38.531Z,162.50
2018-12-01T09:37:38.538Z,168.50
2018-12-01T09:38:38.543Z,454.20
2018-12-01T09:39:38.553Z,182.90
2018-12-01T09:40:38.560Z,156.70
2018-12-01T09:41:38.564Z,588.20
2018-12-01T09:42:38.569Z,414.00
2018-12-01T09:43:38.578Z,378.50
2018-12-01T09:44:38.586Z,379.30
2018-12-01T09:45:38.591Z,91.70
2018-12-01T09:46:38.599Z,148.10
2018-12-01T09:47:38.621Z,188.60
2018-12-01T09:48:38.617Z,137.90
2018-12-01T09:49:38.620Z,15.40
2018-12-01T09:50:38.629Z,4.00
2018-12-01T09:51:38.632Z,21.80
2018-12-01T09:52:38.640Z,48.00
2018-12-01T09:53:38.646Z,211.40
2018-12-01T09:54:38.653Z,16.30
2018-12-01T09:55:38.660Z,16.80
2018-12-01T09:56:38.667Z,20.30
2018-12-01T09:57:38.671Z,4.80
2018-12-01T09:58:38.678Z,14.00
2018-12-01T09:59:38.685Z,24.50
2018-12-01T10:00:38.695Z,6.00
2018-12-01T10:01:38.707Z,13.00
2018-12-01T10:02:38.705Z,4.90
2018-12-01T10:03:38.708Z,26.40
2018-12-01T10:04:38.714Z,5.90
2018-12-01T10:05:38.721Z,20.30
2018-12-01T10:06:38.728Z,9.00
2018-12-01T10:07:38.735Z,6.90
2018-12-01T10:08:38.745Z,18.20
2018-12-01T10:09:38.755Z,7.00
2018-12-01T10:10:38.756Z,2.50
2018-12-01T10:11:38.758Z,11.10
2018-12-01T10:12:38.768Z,3.50
2018-12-01T10:13:38.770Z,2.90
2018-12-01T10:14:38.777Z,39.30
2018-12-01T10:15:38.785Z,19.00
2018-12-01T10:16:38.789Z,3.10
2018-12-01T10:17:38.793Z,28.60
2018-12-01T10:18:38.800Z,19.60
2018-12-01T10:19:38.807Z,46.40
2018-12-01T10:20:38.913Z,22.50
2018-12-01T10:21:38.821Z,80.50
2018-12-01T10:22:38.825Z,65.10
2018-12-01T10:23:38.833Z,159.90
2018-12-01T10:24:38.839Z,522.20
2018-12-01T10:25:38.846Z,299.70
2018-12-01T10:26:38.849Z,84.50
2018-12-01T10:27:38.855Z,37.10
2018-12-01T10:28:38.861Z,10.70
2018-12-01T10:29:38.866Z,265.40
2018-12-01T10:30:38.874Z,175.20
2018-12-01T10:31:38.878Z,127.60
2018-12-01T10:32:38.889Z,12.60
2018-12-01T10:33:38.892Z,12.70
2018-12-01T10:34:38.906Z,4.10
2018-12-01T10:35:38.906Z,5.00
2018-12-01T10:36:38.914Z,4.30
2018-12-01T10:37:38.918Z,7.20
2018-12-01T10:38:38.920Z,5.90
2018-12-01T10:39:38.926Z,3.00
2018-12-01T10:40:38.934Z,4.00
2018-12-01T10:41:38.940Z,3.20
2018-12-01T10:42:38.948Z,3.40
2018-12-01T10:43:38.960Z,15.30
2018-12-01T10:44:38.957Z,22.80
2018-12-01T10:45:38.962Z,360.70
2018-12-01T10:46:38.969Z,76.90
2018-12-01T10:47:38.977Z,35.60
2018-12-01T10:48:38.984Z,3.30
2018-12-01T10:49:38.987Z,8.10
2018-12-01T10:50:39.010Z,6.20
2018-12-01T10:51:39.001Z,2.40
2018-12-01T10:52:39.007Z,8.40
2018-12-01T10:53:39.016Z,2.30
2018-12-01T10:54:39.031Z,3.00
2018-12-01T10:55:39.028Z,2.20
2018-12-01T10:56:39.036Z,2.70
2018-12-01T10:57:39.039Z,1.70
2018-12-01T10:58:39.048Z,3.50
2018-12-01T10:59:39.054Z,3.50
2018-12-01T11:00:39.062Z,2.30
2018-12-01T11:01:39.067Z,2.20
2018-12-01T11:02:39.075Z,2.00
2018-12-01T11:03:39.086Z,2.10
2018-12-01T11:04:39.089Z,2.40
2018-12-01T11:05:39.095Z,2.10
2018-12-01T11:06:39.105Z,2.20
2018-12-01T11:07:39.109Z,2.30
2018-12-01T11:08:39.117Z,1.90
2018-12-01T11:09:39.122Z,2.20
2018-12-01T11:10:39.136Z,2.10
2018-12-01T11:11:39.140Z,2.50
2018-12-01T11:12:39.146Z,2.00
2018-12-01T11:13:39.153Z,2.30
2018-12-01T11:14:39.160Z,1.90
2018-12-01T11:15:39.165Z,2.30
2018-12-01T11:16:39.175Z,2.50
2018-12-01T11:17:39.180Z,2.20
2018-12-01T11:18:39.187Z,3.40
2018-12-01T11:19:39.196Z,2.10
2018-12-01T11:20:39.206Z,2.50
2018-12-01T11:21:39.211Z,2.10
2018-12-01T11:22:39.215Z,2.90
2018-12-01T11:23:39.223Z,2.60
2018-12-01T11:24:39.233Z,3.40
2018-12-01T11:25:39.236Z,2.50
2018-12-01T11:26:39.243Z,3.10
2018-12-01T11:27:39.251Z,3.00
2018-12-01T11:28:39.303Z,2.90
2018-12-01T11:29:39.266Z,2.50
2018-12-01T11:30:39.273Z,2.70
2018-12-01T11:31:39.283Z,2.40
2018-12-01T11:32:39.288Z,2.70
2018-12-01T11:33:39.295Z,2.60
2018-12-01T11:34:39.302Z,2.60
2018-12-01T11:35:39.309Z,2.70
2018-12-01T11:36:39.316Z,3.00
2018-12-01T11:37:39.324Z,2.90
2018-12-01T11:38:39.334Z,2.20
2018-12-01T11:39:39.338Z,2.40
2018-12-01T11:40:39.346Z,2.40
2018-12-01T11:41:39.352Z,2.10
2018-12-01T11:42:39.360Z,2.20
2018-12-01T11:43:39.369Z,2.60
2018-12-01T11:44:39.377Z,2.10
2018-12-01T11:45:39.384Z,2.40
2018-12-01T11:46:39.397Z,2.50
2018-12-01T11:47:39.401Z,2.50
2018-12-01T11:48:39.422Z,2.90
2018-12-01T11:49:39.417Z,2.10
2018-12-01T11:50:39.429Z,2.10
2018-12-01T11:51:39.435Z,2.70
2018-12-01T11:52:39.441Z,2.70
2018-12-01T11:53:39.448Z,2.30
2018-12-01T11:54:39.459Z,2.50
2018-12-01T11:55:39.464Z,2.50
2018-12-01T11:56:39.475Z,2.70
2018-12-01T11:57:39.480Z,3.90
2018-12-01T11:58:39.491Z,2.30
2018-12-01T11:59:39.502Z,3.10
2018-12-01T12:00:39.508Z,2.80
2018-12-01T12:01:39.515Z,2.50
2018-12-01T12:02:39.524Z,2.40
2018-12-01T12:03:39.531Z,3.10
2018-12-01T12:04:39.538Z,3.20
2018-12-01T12:05:39.545Z,2.50
2018-12-01T12:06:39.553Z,2.70
2018-12-01T12:07:39.567Z,2.40
2018-12-01T12:08:39.571Z,2.30
2018-12-01T12:09:39.579Z,3.20
2018-12-01T12:10:39.589Z,2.80
2018-12-01T12:11:39.594Z,2.50
2018-12-01T12:12:39.602Z,2.70
2018-12-01T12:13:39.609Z,2.50
2018-12-01T12:14:39.618Z,2.40
2018-12-01T12:15:39.636Z,2.30
2018-12-01T12:16:39.636Z,2.70
2018-12-01T12:17:39.646Z,2.80
2018-12-01T12:18:39.658Z,2.50
2018-12-01T12:19:39.673Z,3.30
2018-12-01T12:20:39.667Z,2.50
2018-12-01T12:21:39.678Z,3.00
2018-12-01T12:22:39.684Z,2.90
2018-12-01T12:23:39.694Z,2.50
2018-12-01T12:24:39.702Z,2.30
2018-12-01T12:25:40.445Z,3.30
2018-12-01T12:26:39.722Z,2.50
2018-12-01T12:27:39.732Z,2.50
2018-12-01T12:28:39.738Z,2.50
2018-12-01T12:29:39.747Z,2.50
2018-12-01T12:30:39.755Z,2.50
2018-12-01T12:31:39.767Z,3.50
2018-12-01T12:32:39.777Z,2.30
2018-12-01T12:33:39.784Z,2.90
2018-12-01T12:34:39.795Z,2.50
2018-12-01T12:35:39.805Z,3.30
2018-12-01T12:36:39.814Z,2.30
2018-12-01T12:37:39.822Z,2.20
2018-12-01T12:38:39.833Z,2.60
2018-12-01T12:39:39.843Z,2.10
2018-12-01T12:40:39.856Z,3.20
2018-12-01T12:41:39.861Z,3.10
2018-12-01T12:42:39.870Z,2.90
2018-12-01T12:43:39.881Z,3.00
2018-12-01T12:44:39.916Z,2.80
2018-12-01T12:45:39.901Z,3.10
2018-12-01T12:46:39.911Z,2.30